Time;durP1;ratioP1;P1;durP2;ratioP2;P2;SDS_P1;SDS_P2;PMS_P1;PMS_P2;Temp;Humidity;BMP_temperature;BMP_pressure;BME280_temperature;BME280_humidity;BME280_pressure;Samples;Min_cycle;Max_cycle;Signal;HPM_P1;HPM_P2
2022/02/23 00:02:07;;;;;;;;;;;;;;;3.89;85.97;98084.98;1758569;80;20317;-87
2022/02/23 00:04:33;;;;;;;;;;;;;;;3.89;86.09;98082.39;1764516;80;20859;-87
2022/02/23 00:06:59;;;;;;;;;;;;;;;3.87;86.12;98076.02;1756101;80;20264;-87
2022/02/23 00:09:25;;;;;;;;;;;;;;;3.90;86.17;98076.31;1761458;80;20222;-86
2022/02/23 00:11:51;;;;;;;;;;;;;;;3.91;86.18;98077.53;1770662;80;24820;-86
2022/02/23 00:14:17;;;;;;;;;;;;;;;3.91;86.18;98071.06;1762784;80;22593;-86
2022/02/23 00:16:49;;;;;;;;;;;;;;;3.92;86.18;98071.91;1757485;80;20687;-85
2022/02/23 00:19:15;;;;;;;;;;;;;;;3.92;86.15;98062.39;1758489;80;24659;-87
2022/02/23 00:21:41;;;;;;;;;;;;;;;3.92;86.13;98066.27;1755585;80;20260;-87
2022/02/23 00:24:07;;;;;;;;;;;;;;;3.89;86.08;98063.82;1760320;80;24841;-87
2022/02/23 00:26:34;;;;;;;;;;;;;;;3.87;86.06;98068.25;1761403;80;20268;-87
2022/02/23 00:29:03;;;;;;;;;;;;;;;3.87;86.06;98061.78;1752564;80;25976;-88
2022/02/23 00:31:29;;;;;;;;;;;;;;;3.88;86.08;98066.47;1754321;80;24433;-87
2022/02/23 00:33:55;;;;;;;;;;;;;;;3.88;86.10;98063.88;1759134;80;20205;-88
2022/02/23 00:36:21;;;;;;;;;;;;;;;3.88;86.11;98056.96;1762138;80;20218;-82
2022/02/23 00:38:47;;;;;;;;;;;;;;;3.90;86.17;98051.72;1752425;79;20256;-84
2022/02/23 00:41:13;;;;;;;;;;;;;;;3.93;86.26;98045.92;1762649;80;20312;-86
2022/02/23 00:43:39;;;;;;;;;;;;;;;3.94;86.33;98056.66;1761447;80;20302;-87
2022/02/23 00:46:05;;;;;;;;;;;;;;;3.97;86.44;98051.80;1765904;80;20408;-87
2022/02/23 00:48:31;;;;;;;;;;;;;;;3.98;86.51;98052.19;1760184;81;20608;-85
2022/02/23 00:50:58;;;;;;;;;;;;;;;3.99;86.58;98044.78;1762622;80;20246;-86
2022/02/23 00:53:24;;;;;;;;;;;;;;;4.01;86.61;98037.78;1755670;81;20967;-87
2022/02/23 00:55:50;;;;;;;;;;;;;;;4.01;86.58;98031.31;1756807;80;20262;-84
2022/02/23 00:58:16;;;;;;;;;;;;;;;4.00;86.57;98030.93;1755840;80;20308;-86
2022/02/23 01:00:43;;;;;;;;;;;;;;;4.00;86.56;98036.11;1760948;80;20751;-87
2022/02/23 01:03:09;;;;;;;;;;;;;;;4.03;86.56;98030.80;1756588;80;22026;-87
2022/02/23 01:05:35;;;;;;;;;;;;;;;4.03;86.60;98025.62;1763301;80;26033;-87
2022/02/23 01:08:02;;;;;;;;;;;;;;;4.00;86.62;98025.30;1748837;79;25066;-87
2022/02/23 01:10:28;;;;;;;;;;;;;;;4.03;86.59;98021.73;1752605;81;20173;-87
2022/02/23 01:12:54;;;;;;;;;;;;;;;4.04;86.63;98013.86;1753106;80;25666;-84
2022/02/23 01:15:20;;;;;;;;;;;;;;;4.05;86.72;98008.23;1752451;81;20356;-84
2022/02/23 01:17:46;;;;;;;;;;;;;;;4.08;86.79;98011.98;1760479;80;26083;-84
2022/02/23 01:20:12;;;;;;;;;;;;;;;4.07;86.80;98007.25;1759071;80;20313;-84
2022/02/23 01:22:38;;;;;;;;;;;;;;;4.08;86.80;98008.09;1758907;80;20258;-87
2022/02/23 01:25:05;;;;;;;;;;;;;;;4.09;86.83;98004.11;1756061;80;20263;-86
2022/02/23 01:27:31;;;;;;;;;;;;;;;4.11;86.86;98018.28;1764944;80;21937;-87
2022/02/23 01:29:58;;;;;;;;;;;;;;;4.11;86.92;98013.95;1747612;80;21030;-87
2022/02/23 01:32:27;;;;;;;;;;;;;;;4.10;87.00;98007.09;1761075;81;24450;-87
2022/02/23 01:34:53;;;;;;;;;;;;;;;4.12;87.12;98010.90;1762574;81;20187;-87
2022/02/23 01:37:20;;;;;;;;;;;;;;;4.13;87.26;98003.06;1758552;80;20236;-87
2022/02/23 01:39:46;;;;;;;;;;;;;;;4.16;87.43;97995.58;1749424;81;22052;-87
2022/02/23 01:42:12;;;;;;;;;;;;;;;4.18;87.60;97991.17;1761188;81;21189;-87
2022/02/23 01:44:38;;;;;;;;;;;;;;;4.19;87.79;97988.52;1760557;81;20254;-84
2022/02/23 01:47:04;;;;;;;;;;;;;;;4.20;87.94;97977.67;1758261;79;20170;-83
2022/02/23 01:49:30;;;;;;;;;;;;;;;4.20;88.10;97978.96;1754041;81;24218;-83
2022/02/23 01:51:56;;;;;;;;;;;;;;;4.25;88.32;97981.34;1764434;81;20311;-87
2022/02/23 01:54:22;;;;;;;;;;;;;;;4.26;88.51;97976.06;1756323;80;20978;-87
2022/02/23 01:56:48;;;;;;;;;;;;;;;4.32;88.75;97975.74;1757881;80;20912;-83
2022/02/23 01:59:14;;;;;;;;;;;;;;;4.32;88.96;97969.27;1761125;80;20288;-83
2022/02/23 02:01:40;;;;;;;;;;;;;;;4.35;89.09;97963.95;1765438;80;24639;-87
2022/02/23 02:04:06;;;;;;;;;;;;;;;4.35;89.18;97954.04;1758118;80;20335;-87
2022/02/23 02:06:32;;;;;;;;;;;;;;;4.36;89.28;97948.79;1760627;80;20391;-87
2022/02/23 02:08:58;;;;;;;;;;;;;;;4.37;89.38;97955.61;1763095;80;20303;-87
2022/02/23 02:11:31;;;;;;;;;;;;;;;4.38;89.49;97950.81;1765662;80;20814;-87
2022/02/23 02:13:57;;;;;;;;;;;;;;;4.40;89.55;97958.06;1759132;80;24743;-85
2022/02/23 02:16:23;;;;;;;;;;;;;;;4.39;89.54;97957.68;1760495;80;20339;-85
2022/02/23 02:18:52;;;;;;;;;;;;;;;4.37;89.57;97955.61;1765541;79;26113;-85
2022/02/23 02:21:18;;;;;;;;;;;;;;;4.41;89.66;97961.03;1751814;80;24553;-85
2022/02/23 02:23:44;;;;;;;;;;;;;;;4.41;89.73;97961.03;1756670;80;20174;-85
2022/02/23 02:26:10;;;;;;;;;;;;;;;4.38;89.76;97958.59;1763811;80;20235;-85
2022/02/23 02:28:36;;;;;;;;;;;;;;;4.36;89.82;97953.97;1764213;80;20212;-83
2022/02/23 02:31:02;;;;;;;;;;;;;;;4.30;89.86;97941.34;1764453;80;21144;-83
2022/02/23 02:33:29;;;;;;;;;;;;;;;4.29;89.90;97946.13;1760142;80;20756;-83
2022/02/23 02:35:56;;;;;;;;;;;;;;;4.28;90.00;97944.91;1766817;80;20196;-83
2022/02/23 02:38:22;;;;;;;;;;;;;;;4.28;90.16;97952.68;1758472;80;20216;-83
2022/02/23 02:40:49;;;;;;;;;;;;;;;4.29;90.31;97943.55;1757221;80;20215;-83
2022/02/23 02:43:16;;;;;;;;;;;;;;;4.29;90.48;97941.41;1759622;80;21028;-83
2022/02/23 02:45:44;;;;;;;;;;;;;;;4.28;90.60;97941.02;1759593;80;21367;-83
2022/02/23 02:48:10;;;;;;;;;;;;;;;4.24;90.74;97937.77;1765001;80;20825;-82
2022/02/23 02:50:38;;;;;;;;;;;;;;;4.18;90.85;97937.63;1764502;80;20231;-83
2022/02/23 02:53:04;;;;;;;;;;;;;;;4.20;90.99;97936.23;1757417;80;21959;-83
2022/02/23 02:55:30;;;;;;;;;;;;;;;4.21;91.25;97929.69;1723051;82;25313;-83
2022/02/23 02:57:56;;;;;;;;;;;;;;;4.23;91.48;97930.91;1722234;82;20231;-84
2022/02/23 03:00:24;;;;;;;;;;;;;;;4.23;91.74;97938.67;1732464;82;20273;-85
2022/02/23 03:02:50;;;;;;;;;;;;;;;4.24;91.99;97945.99;1733523;82;24813;-86
2022/02/23 03:05:16;;;;;;;;;;;;;;;4.25;92.26;97934.27;1720997;82;22019;-86
2022/02/23 03:07:42;;;;;;;;;;;;;;;4.21;92.57;97934.86;1727770;82;20564;-86
2022/02/23 03:10:08;;;;;;;;;;;;;;;4.19;92.94;97938.02;1736797;82;20261;-86
2022/02/23 03:12:34;;;;;;;;;;;;;;;4.17;93.36;97941.13;1722736;82;20474;-86
2022/02/23 03:15:01;;;;;;;;;;;;;;;4.17;93.79;97946.77;1724797;82;20227;-86
2022/02/23 03:17:27;;;;;;;;;;;;;;;4.15;94.23;97944.70;1733586;82;22064;-86
2022/02/23 03:19:54;;;;;;;;;;;;;;;4.15;94.63;97949.88;1721277;82;23170;-86
2022/02/23 03:22:20;;;;;;;;;;;;;;;4.09;95.03;97939.87;1728691;82;24463;-87
2022/02/23 03:24:46;;;;;;;;;;;;;;;4.12;95.46;97946.17;1729038;82;20242;-86
2022/02/23 03:27:12;;;;;;;;;;;;;;;4.10;95.90;97948.83;1732522;82;20315;-87
2022/02/23 03:29:38;;;;;;;;;;;;;;;4.11;96.34;97941.44;1727004;82;20333;-87
2022/02/23 03:32:04;;;;;;;;;;;;;;;4.11;96.78;97944.48;1718549;82;21071;-87
2022/02/23 03:34:30;;;;;;;;;;;;;;;4.09;97.21;97942.45;1730748;82;24503;-87
2022/02/23 03:36:56;;;;;;;;;;;;;;;4.09;97.64;97948.44;1725044;82;20217;-87
2022/02/23 03:39:22;;;;;;;;;;;;;;;4.09;98.07;97952.33;1725111;82;20249;-87
2022/02/23 03:41:48;;;;;;;;;;;;;;;4.10;98.53;97958.34;1729144;82;21934;-87
2022/02/23 03:44:14;;;;;;;;;;;;;;;4.10;98.96;97957.05;1733037;82;20925;-87
2022/02/23 03:46:40;;;;;;;;;;;;;;;4.09;99.38;97959.28;1725786;82;25651;-87
2022/02/23 03:49:06;;;;;;;;;;;;;;;4.09;99.81;97955.41;1731723;82;20442;-87
2022/02/23 03:51:34;;;;;;;;;;;;;;;4.09;100.00;97963.17;1729289;82;24913;-86
2022/02/23 03:54:00;;;;;;;;;;;;;;;4.11;100.00;97961.32;1742376;81;21949;-86
2022/02/23 03:56:38;;;;;;;;;;;;;;;4.13;100.00;97971.16;1743268;81;21770;-86
2022/02/23 03:59:08;;;;;;;;;;;;;;;4.14;100.00;97972.38;1734458;81;24546;-86
2022/02/23 04:01:35;;;;;;;;;;;;;;;4.15;100.00;97976.61;1752811;81;20368;-86
2022/02/23 04:04:02;;;;;;;;;;;;;;;4.18;100.00;97980.81;1756977;80;25591;-87
2022/02/23 04:06:34;;;;;;;;;;;;;;;4.19;100.00;97983.33;1759267;80;22084;-89
2022/02/23 04:09:01;;;;;;;;;;;;;;;4.21;100.00;97979.34;1759755;80;25968;-89
2022/02/23 04:11:27;;;;;;;;;;;;;;;4.23;100.00;97975.39;1764071;81;24511;-89
2022/02/23 04:13:53;;;;;;;;;;;;;;;4.26;100.00;97979.94;1762890;81;20222;-89
2022/02/23 04:16:19;;;;;;;;;;;;;;;4.28;100.00;97977.28;1753591;81;24839;-88
2022/02/23 04:18:45;;;;;;;;;;;;;;;4.29;100.00;97978.51;1761398;81;21998;-89
2022/02/23 04:21:11;;;;;;;;;;;;;;;4.31;100.00;97981.84;1759161;80;26030;-89
2022/02/23 04:23:37;;;;;;;;;;;;;;;4.34;100.00;97984.28;1756570;80;25140;-89
2022/02/23 04:26:03;;;;;;;;;;;;;;;4.25;100.00;97962.76;1763481;80;20769;-89
2022/02/23 04:28:31;;;;;;;;;;;;;;;4.36;100.00;97981.17;1755700;80;24956;-89
2022/02/23 04:31:02;;;;;;;;;;;;;;;4.37;100.00;97993.17;1759494;80;22009;-89
2022/02/23 04:33:37;;;;;;;;;;;;;;;4.38;100.00;97991.42;1761419;80;26099;-88
2022/02/23 04:36:06;;;;;;;;;;;;;;;4.40;100.00;98001.27;1756082;80;24458;-88
2022/02/23 04:38:32;;;;;;;;;;;;;;;4.39;100.00;97999.58;1762501;80;20211;-88
2022/02/23 04:40:58;;;;;;;;;;;;;;;4.38;100.00;98002.63;1761260;80;24935;-88
2022/02/23 04:43:24;;;;;;;;;;;;;;;4.39;100.00;98008.65;1761971;80;20236;-88
2022/02/23 04:45:50;;;;;;;;;;;;;;;4.38;100.00;98009.10;1760278;80;20967;-88
2022/02/23 04:48:17;;;;;;;;;;;;;;;4.38;100.00;98015.58;1757314;80;20222;-88
2022/02/23 04:50:43;;;;;;;;;;;;;;;4.37;100.00;98023.42;1748806;80;20333;-90
2022/02/23 04:53:09;;;;;;;;;;;;;;;4.38;100.00;98036.30;1746167;80;24879;-89
2022/02/23 04:55:38;;;;;;;;;;;;;;;4.35;100.00;98045.54;1763613;80;20224;-89
2022/02/23 04:58:07;;;;;;;;;;;;;;;4.32;100.00;98046.98;1760100;81;26003;-89
2022/02/23 05:00:32;;;;;;;;;;;;;;;4.38;100.00;98039.34;1761549;79;24433;-89
2022/02/23 05:02:58;;;;;;;;;;;;;;;4.41;100.00;98034.03;1743684;80;20251;-89
2022/02/23 05:05:24;;;;;;;;;;;;;;;4.42;100.00;98048.17;1759390;81;20397;-89
2022/02/23 05:07:50;;;;;;;;;;;;;;;4.39;100.00;98063.05;1757419;81;20258;-89
2022/02/23 05:10:16;;;;;;;;;;;;;;;4.38;100.00;98055.73;1758727;80;21137;-89
2022/02/23 05:12:42;;;;;;;;;;;;;;;4.43;100.00;98055.49;1757471;79;20838;-89
2022/02/23 05:15:10;;;;;;;;;;;;;;;4.47;100.00;98061.73;1752058;80;20223;-89
2022/02/23 05:17:36;;;;;;;;;;;;;;;4.48;100.00;98060.82;1761422;80;20311;-89
2022/02/23 05:20:04;;;;;;;;;;;;;;;4.45;100.00;98057.10;1756088;80;20980;-87
2022/02/23 05:22:29;;;;;;;;;;;;;;;4.43;100.00;98058.92;1755299;80;26013;-87
2022/02/23 05:24:55;;;;;;;;;;;;;;;4.41;100.00;98065.95;1757643;80;20240;-87
2022/02/23 05:27:27;;;;;;;;;;;;;;;4.42;100.00;98070.20;1764977;80;20267;-88
2022/02/23 05:29:53;;;;;;;;;;;;;;;4.39;100.00;98069.07;1763745;80;24766;-87
2022/02/23 05:32:25;;;;;;;;;;;;;;;4.39;100.00;98068.23;1760913;80;20242;-88
2022/02/23 05:34:55;;;;;;;;;;;;;;;4.37;100.00;98061.83;1759353;80;26235;-88
2022/02/23 05:37:22;;;;;;;;;;;;;;;4.38;100.00;98068.69;1759657;80;24607;-89
2022/02/23 05:39:51;;;;;;;;;;;;;;;4.38;100.00;98070.44;1757901;80;20310;-88
2022/02/23 05:42:17;;;;;;;;;;;;;;;4.39;100.00;98078.14;1755127;80;24807;-88
2022/02/23 05:44:43;;;;;;;;;;;;;;;4.42;100.00;98084.45;1752290;80;20306;-88
2022/02/23 05:47:09;;;;;;;;;;;;;;;4.45;100.00;98082.17;1756252;79;20880;-88
2022/02/23 05:49:35;;;;;;;;;;;;;;;4.48;100.00;98093.20;1754275;80;20275;-89
2022/02/23 05:52:01;;;;;;;;;;;;;;;4.49;100.00;98087.11;1761754;80;20862;-89
2022/02/23 05:54:28;;;;;;;;;;;;;;;4.52;100.00;98088.73;1757109;80;24755;-88
2022/02/23 05:56:55;;;;;;;;;;;;;;;4.52;100.00;98100.39;1754010;80;22067;-88
2022/02/23 05:59:20;;;;;;;;;;;;;;;4.52;100.00;98105.56;1765624;80;26005;-89
2022/02/23 06:01:47;;;;;;;;;;;;;;;4.53;100.00;98109.81;1753267;79;24426;-89
2022/02/23 06:04:15;;;;;;;;;;;;;;;4.55;100.00;98115.77;1754771;80;20276;-87
2022/02/23 06:06:47;;;;;;;;;;;;;;;4.57;100.00;98134.67;1759747;80;24914;-88
2022/02/23 06:09:14;;;;;;;;;;;;;;;4.59;100.00;98144.48;1759182;80;23065;-87
2022/02/23 06:11:41;;;;;;;;;;;;;;;4.58;100.00;98169.55;1762355;80;26146;-87
2022/02/23 06:14:07;;;;;;;;;;;;;;;4.56;100.00;98180.48;1760165;80;24519;-87
2022/02/23 06:16:33;;;;;;;;;;;;;;;4.52;100.00;98200.14;1757707;80;20284;-87
2022/02/23 06:18:59;;;;;;;;;;;;;;;4.48;100.00;98216.73;1766237;80;20248;-88
2022/02/23 06:21:25;;;;;;;;;;;;;;;4.47;100.00;98264.31;1760238;80;21973;-89
2022/02/23 06:23:54;;;;;;;;;;;;;;;4.40;100.00;98266.34;1764252;80;20964;-90
2022/02/23 06:26:28;;;;;;;;;;;;;;;4.35;100.00;98289.50;1764173;80;21429;-89
2022/02/23 06:28:54;;;;;;;;;;;;;;;4.21;100.00;98305.21;1756322;80;20181;-85
2022/02/23 06:31:20;;;;;;;;;;;;;;;4.10;100.00;98287.19;1734856;80;20196;-84
2022/02/23 06:33:47;;;;;;;;;;;;;;;4.04;100.00;98284.88;1764349;80;20260;-84
2022/02/23 06:36:13;;;;;;;;;;;;;;;4.02;100.00;98277.66;1751032;79;26020;-85
2022/02/23 06:38:44;;;;;;;;;;;;;;;4.02;100.00;98288.86;1761481;80;24495;-84
2022/02/23 06:41:09;;;;;;;;;;;;;;;4.01;100.00;98288.92;1750399;79;20213;-84
2022/02/23 06:43:35;;;;;;;;;;;;;;;4.03;100.00;98297.47;1764345;80;24848;-84
2022/02/23 06:46:02;;;;;;;;;;;;;;;4.02;100.00;98303.09;1766416;80;21947;-84
2022/02/23 06:48:28;;;;;;;;;;;;;;;4.05;100.00;98302.10;1757061;80;26077;-84
2022/02/23 06:50:55;;;;;;;;;;;;;;;4.07;100.00;98305.47;1757405;80;25434;-85
2022/02/23 06:53:22;;;;;;;;;;;;;;;4.08;100.00;98310.59;1761164;79;20471;-84
2022/02/23 06:55:50;;;;;;;;;;;;;;;4.10;100.00;98329.92;1734591;80;24747;-84
2022/02/23 06:58:16;;;;;;;;;;;;;;;4.11;100.00;98327.72;1722373;82;21953;-84
2022/02/23 07:00:42;;;;;;;;;;;;;;;4.10;100.00;98337.69;1727140;82;20915;-84
2022/02/23 07:03:10;;;;;;;;;;;;;;;4.13;100.00;98350.06;1726364;82;20638;-84
2022/02/23 07:05:36;;;;;;;;;;;;;;;4.14;100.00;98350.91;1729790;82;20150;-85
2022/02/23 07:08:03;;;;;;;;;;;;;;;4.14;100.00;98356.93;1731744;82;20746;-84
2022/02/23 07:10:30;;;;;;;;;;;;;;;4.17;100.00;98365.84;1729712;82;22138;-84
2022/02/23 07:12:57;;;;;;;;;;;;;;;4.20;100.00;98362.25;1718720;82;26716;-84
2022/02/23 07:15:24;;;;;;;;;;;;;;;4.24;100.00;98372.88;1727931;82;24758;-84
2022/02/23 07:17:50;;;;;;;;;;;;;;;4.29;100.00;98372.67;1740133;81;20219;-85
2022/02/23 07:20:16;;;;;;;;;;;;;;;4.33;100.00;98384.56;1730167;82;24748;-84
2022/02/23 07:22:42;;;;;;;;;;;;;;;4.38;100.00;98386.03;1729415;81;22070;-84
2022/02/23 07:25:12;;;;;;;;;;;;;;;4.46;100.00;98396.06;1732239;82;26135;-84
2022/02/23 07:27:41;;;;;;;;;;;;;;;4.52;100.00;98392.73;1717091;82;24660;-84
2022/02/23 07:30:09;;;;;;;;;;;;;;;4.56;100.00;98402.05;1724175;82;20216;-84
2022/02/23 07:32:35;;;;;;;;;;;;;;;4.63;100.00;98418.16;1727875;82;25356;-84
2022/02/23 07:35:02;;;;;;;;;;;;;;;4.67;100.00;98420.14;1722339;82;21990;-84
2022/02/23 07:37:28;;;;;;;;;;;;;;;4.66;100.00;98428.82;1724309;82;26666;-84
2022/02/23 07:39:58;;;;;;;;;;;;;;;4.62;100.00;98434.16;1719350;82;24578;-84
2022/02/23 07:42:24;;;;;;;;;;;;;;;4.61;100.00;98443.30;1726948;82;20271;-84
2022/02/23 07:44:50;;;;;;;;;;;;;;;4.61;100.00;98444.59;1726475;82;25695;-84
2022/02/23 07:47:16;;;;;;;;;;;;;;;4.62;100.00;98451.01;1733748;82;22024;-84
2022/02/23 07:49:46;;;;;;;;;;;;;;;4.69;100.00;98461.09;1724628;82;26794;-84
2022/02/23 07:52:10;;;;;;;;;;;;;;;4.73;100.00;98458.74;1726020;82;24534;-84
2022/02/23 07:54:36;;;;;;;;;;;;;;;4.76;100.00;98467.66;1743980;80;20199;-85
2022/02/23 07:57:02;;;;;;;;;;;;;;;4.81;100.00;98475.61;1763296;80;20296;-84
2022/02/23 07:59:28;;;;;;;;;;;;;;;4.82;100.00;98481.19;1756617;80;22073;-84
2022/02/23 08:01:54;;;;;;;;;;;;;;;4.82;100.00;98490.72;1761389;80;20580;-84
2022/02/23 08:04:20;;;;;;;;;;;;;;;4.81;100.00;98501.54;1763193;80;20854;-84
2022/02/23 08:06:46;;;;;;;;;;;;;;;4.80;100.00;98503.73;1758321;79;20194;-84
2022/02/23 08:09:12;;;;;;;;;;;;;;;4.79;100.00;98499.94;1761543;80;20274;-84
2022/02/23 08:11:39;;;;;;;;;;;;;;;4.81;100.00;98504.13;1758186;80;20307;-87
2022/02/23 08:14:06;;;;;;;;;;;;;;;4.83;100.00;98501.48;1755952;80;26184;-87
2022/02/23 08:19:36;;;;;;;;;;;;;;;4.86;100.00;98522.06;1759927;80;20317;-87
2022/02/23 08:22:08;;;;;;;;;;;;;;;4.88;100.00;98526.73;1757654;80;24759;-87
2022/02/23 08:24:37;;;;;;;;;;;;;;;4.89;100.00;98521.94;1760712;80;22138;-88
2022/02/23 08:27:04;;;;;;;;;;;;;;;4.91;100.00;98527.43;1760741;80;26045;-87
2022/02/23 08:29:30;;;;;;;;;;;;;;;4.92;100.00;98526.97;1757756;80;25082;-87
2022/02/23 08:31:57;;;;;;;;;;;;;;;4.92;100.00;98543.83;1752149;80;20335;-87
2022/02/23 08:34:24;;;;;;;;;;;;;;;4.93;100.00;98539.03;1757284;80;24862;-87
2022/02/23 08:36:50;;;;;;;;;;;;;;;4.96;100.00;98537.62;1760241;80;22000;-84
2022/02/23 08:39:19;;;;;;;;;;;;;;;5.00;100.00;98543.89;1761458;80;26027;-84
2022/02/23 08:41:45;;;;;;;;;;;;;;;5.02;100.00;98543.34;1757415;80;24421;-84
2022/02/23 08:44:12;;;;;;;;;;;;;;;5.06;100.00;98546.66;1759762;80;20157;-84
2022/02/23 08:46:40;;;;;;;;;;;;;;;5.10;100.00;98549.94;1766499;80;25489;-84
2022/02/23 08:49:10;;;;;;;;;;;;;;;5.11;100.00;98549.88;1759109;80;22086;-84
2022/02/23 08:51:37;;;;;;;;;;;;;;;5.14;100.00;98549.72;1758901;80;25589;-84
2022/02/23 08:54:04;;;;;;;;;;;;;;;5.18;100.00;98553.87;1760557;80;24507;-84
2022/02/23 08:56:31;;;;;;;;;;;;;;;5.24;100.00;98550.12;1756913;79;20575;-83
2022/02/23 08:58:57;;;;;;;;;;;;;;;5.27;100.00;98553.45;1757662;80;24888;-83
2022/02/23 09:01:25;;;;;;;;;;;;;;;5.27;100.00;98558.63;1763732;80;21960;-84
2022/02/23 09:03:51;;;;;;;;;;;;;;;5.33;100.00;98560.10;1761254;80;26043;-83
2022/02/23 09:06:19;;;;;;;;;;;;;;;5.37;100.00;98549.95;1755373;79;24421;-84
2022/02/23 09:08:45;;;;;;;;;;;;;;;5.40;100.00;98558.91;1758537;80;20491;-87
2022/02/23 09:11:13;;;;;;;;;;;;;;;5.46;100.00;98557.30;1757875;80;20254;-87
2022/02/23 09:13:39;;;;;;;;;;;;;;;5.51;100.00;98557.11;1759353;80;22104;-87
2022/02/23 09:16:05;;;;;;;;;;;;;;;5.59;100.00;98561.46;1761847;80;21146;-84
2022/02/23 09:18:31;;;;;;;;;;;;;;;5.68;100.00;98571.39;1763818;80;25244;-84
2022/02/23 09:20:57;;;;;;;;;;;;;;;5.73;100.00;98568.96;1763971;80;20466;-83
2022/02/23 09:23:23;;;;;;;;;;;;;;;5.79;100.00;98566.53;1758368;80;20251;-83
2022/02/23 09:25:49;;;;;;;;;;;;;;;5.85;100.00;98571.42;1761489;80;20291;-83
2022/02/23 09:28:15;;;;;;;;;;;;;;;5.92;100.00;98571.55;1759941;80;20921;-83
2022/02/23 09:30:41;;;;;;;;;;;;;;;5.95;100.00;98574.44;1762760;79;20857;-83
2022/02/23 09:33:07;;;;;;;;;;;;;;;6.03;100.00;98578.36;1756945;80;21042;-83
2022/02/23 09:35:34;;;;;;;;;;;;;;;6.06;100.00;98575.59;1760730;80;24785;-83
2022/02/23 09:38:01;;;;;;;;;;;;;;;6.11;100.00;98580.59;1761026;80;22116;-84
2022/02/23 09:40:28;;;;;;;;;;;;;;;6.09;100.00;98579.81;1760087;80;26066;-85
2022/02/23 09:42:54;;;;;;;;;;;;;;;6.06;100.00;98584.69;1762593;80;24442;-84
2022/02/23 09:45:20;;;;;;;;;;;;;;;6.04;100.00;98581.80;1755703;80;20868;-88
2022/02/23 09:47:46;;;;;;;;;;;;;;;6.05;100.00;98588.23;1757515;80;24786;-88
2022/02/23 09:50:21;;;;;;;;;;;;;;;6.05;100.00;98581.73;1750651;80;20238;-88
2022/02/23 09:52:51;;;;;;;;;;;;;;;6.02;100.00;98586.22;1759375;80;26098;-88
2022/02/23 09:55:17;;;;;;;;;;;;;;;6.00;100.00;98583.69;1756895;80;24480;-88
2022/02/23 09:57:43;;;;;;;;;;;;;;;6.00;100.00;98579.80;1758984;81;20249;-84
2022/02/23 10:00:10;;;;;;;;;;;;;;;6.07;100.00;98580.34;1753239;80;24820;-84
2022/02/23 10:02:37;;;;;;;;;;;;;;;6.10;100.00;98590.59;1760360;80;22203;-88
2022/02/23 10:05:04;;;;;;;;;;;;;;;6.11;100.00;98588.39;1761800;80;26057;-88
2022/02/23 10:07:31;;;;;;;;;;;;;;;6.11;100.00;98591.80;1761167;80;24630;-88
2022/02/23 10:10:00;;;;;;;;;;;;;;;6.08;100.00;98585.47;1761572;80;20323;-88
2022/02/23 10:12:27;;;;;;;;;;;;;;;6.05;100.00;98597.33;1750794;80;24843;-88
2022/02/23 10:15:13;;;;;;;;;;;;;;;6.04;100.00;98602.13;1756446;80;21943;-88
2022/02/23 10:17:43;;;;;;;;;;;;;;;6.03;100.00;98599.14;1754633;80;25955;-88
2022/02/23 10:20:28;;;;;;;;;;;;;;;6.01;100.00;98608.76;1759953;80;24511;-88
2022/02/23 10:22:58;;;;;;;;;;;;;;;6.03;100.00;98612.13;1761911;80;20461;-88
2022/02/23 10:25:26;;;;;;;;;;;;;;;6.11;100.00;98611.77;1759195;80;24809;-88
2022/02/23 10:27:53;;;;;;;;;;;;;;;6.16;100.00;98613.23;1759583;80;21973;-88
2022/02/23 10:30:27;;;;;;;;;;;;;;;6.21;100.00;98607.80;1756244;80;26744;-88
2022/02/23 10:32:54;;;;;;;;;;;;;;;6.27;100.00;98613.51;1756585;80;24497;-88
2022/02/23 10:35:28;;;;;;;;;;;;;;;6.34;100.00;98608.86;1759935;80;20423;-88
2022/02/23 10:37:54;;;;;;;;;;;;;;;6.42;100.00;98614.98;1758616;79;24824;-88
2022/02/23 10:40:26;;;;;;;;;;;;;;;6.56;100.00;98607.31;1755628;81;22046;-88
2022/02/23 10:42:52;;;;;;;;;;;;;;;6.69;100.00;98605.78;1757939;80;25935;-88
2022/02/23 10:45:18;;;;;;;;;;;;;;;6.72;100.00;98599.11;1760791;80;20762;-88
2022/02/23 10:47:46;;;;;;;;;;;;;;;6.72;100.00;98612.95;1755919;80;20210;-85
2022/02/23 10:50:14;;;;;;;;;;;;;;;6.72;100.00;98607.75;1757934;80;24733;-84
2022/02/23 10:52:42;;;;;;;;;;;;;;;6.73;100.00;98619.00;1756023;80;22854;-84
2022/02/23 10:55:14;;;;;;;;;;;;;;;6.72;100.00;98622.52;1751783;81;26006;-84
2022/02/23 10:57:43;;;;;;;;;;;;;;;6.68;100.00;98625.74;1731787;82;24675;-84
2022/02/23 11:00:13;;;;;;;;;;;;;;;6.67;100.00;98636.22;1732214;81;20372;-84
2022/02/23 11:02:39;;;;;;;;;;;;;;;6.66;100.00;98625.42;1724885;82;24928;-84
2022/02/23 11:05:06;;;;;;;;;;;;;;;6.67;100.00;98634.91;1730451;81;21935;-84
2022/02/23 11:07:32;;;;;;;;;;;;;;;6.73;100.00;98634.15;1719552;83;26017;-84
2022/02/23 11:09:57;;;;;;;;;;;;;;;6.81;100.00;98623.82;1720257;82;20234;-84
2022/02/23 11:12:24;;;;;;;;;;;;;;;6.92;100.00;98633.21;1728808;82;20266;-84
2022/02/23 11:14:52;;;;;;;;;;;;;;;6.97;100.00;98628.61;1718255;82;20182;-84
2022/02/23 11:17:19;;;;;;;;;;;;;;;7.03;100.00;98626.98;1730285;82;22209;-84
2022/02/23 11:19:45;;;;;;;;;;;;;;;7.10;100.00;98635.67;1732132;82;25981;-84
2022/02/23 11:22:12;;;;;;;;;;;;;;;7.11;99.77;98630.86;1728534;82;24437;-84
2022/02/23 11:24:39;;;;;;;;;;;;;;;7.14;99.34;98639.83;1712596;82;20252;-84
2022/02/23 11:27:07;;;;;;;;;;;;;;;7.14;98.82;98636.37;1723071;82;24751;-84
2022/02/23 11:29:37;;;;;;;;;;;;;;;7.15;98.35;98636.27;1728144;82;22064;-84
2022/02/23 11:32:05;;;;;;;;;;;;;;;7.19;98.08;98638.73;1725216;82;26063;-84
2022/02/23 11:34:31;;;;;;;;;;;;;;;7.23;97.83;98641.09;1721788;82;24477;-84
2022/02/23 11:36:57;;;;;;;;;;;;;;;7.30;97.67;98644.20;1729198;82;20216;-84
2022/02/23 11:39:27;;;;;;;;;;;;;;;7.32;97.36;98644.95;1734077;82;20765;-84
2022/02/23 11:41:55;;;;;;;;;;;;;;;7.33;96.96;98647.48;1732060;82;21960;-85
2022/02/23 11:44:25;;;;;;;;;;;;;;;7.45;96.78;98649.44;1727425;82;26089;-84
2022/02/23 11:46:55;;;;;;;;;;;;;;;7.54;96.59;98655.89;1729710;82;24693;-84
2022/02/23 11:49:23;;;;;;;;;;;;;;;7.58;96.26;98650.08;1734358;82;20215;-84
2022/02/23 11:51:51;;;;;;;;;;;;;;;7.55;95.77;98657.13;1737070;82;24766;-84
2022/02/23 11:54:19;;;;;;;;;;;;;;;7.51;95.32;98642.59;1716881;82;21999;-84
2022/02/23 11:56:49;;;;;;;;;;;;;;;7.47;94.82;98642.85;1736746;80;26038;-84
2022/02/23 11:59:33;;;;;;;;;;;;;;;7.45;94.42;98645.98;1763656;80;24636;-83
2022/02/23 12:02:02;;;;;;;;;;;;;;;7.37;93.81;98651.59;1757646;80;20529;-84
2022/02/23 12:04:50;;;;;;;;;;;;;;;7.32;93.30;98646.25;1758291;80;24753;-83
2022/02/23 12:07:17;;;;;;;;;;;;;;;7.31;92.94;98648.02;1759993;80;22111;-83
2022/02/23 12:09:43;;;;;;;;;;;;;;;7.46;92.90;98639.86;1758426;80;26020;-84
2022/02/23 12:12:11;;;;;;;;;;;;;;;7.62;92.93;98646.38;1759955;80;24657;-84
2022/02/23 12:14:45;;;;;;;;;;;;;;;7.71;92.90;98646.70;1756185;80;20451;-84
2022/02/23 12:17:11;;;;;;;;;;;;;;;7.73;92.60;98646.17;1752534;80;24826;-84
2022/02/23 12:19:41;;;;;;;;;;;;;;;7.77;92.23;98655.49;1760339;80;20233;-84
2022/02/23 12:22:07;;;;;;;;;;;;;;;7.85;92.12;98652.02;1760318;80;26661;-87
2022/02/23 12:24:35;;;;;;;;;;;;;;;7.91;91.90;98652.11;1754765;80;25071;-88
2022/02/23 12:27:07;;;;;;;;;;;;;;;7.94;91.69;98660.62;1760430;80;20202;-88
2022/02/23 12:29:34;;;;;;;;;;;;;;;7.90;91.36;98655.67;1759749;80;24728;-88
2022/02/23 12:32:05;;;;;;;;;;;;;;;7.85;90.82;98652.02;1761418;80;22102;-88
2022/02/23 12:34:32;;;;;;;;;;;;;;;7.86;90.36;98663.25;1754930;80;25955;-84
2022/02/23 12:37:00;;;;;;;;;;;;;;;7.88;90.12;98655.74;1759076;79;24488;-84
2022/02/23 12:39:29;;;;;;;;;;;;;;;7.89;89.88;98653.98;1762727;80;20322;-84
2022/02/23 12:41:58;;;;;;;;;;;;;;;7.85;89.39;98651.17;1763853;80;24706;-84
2022/02/23 12:44:27;;;;;;;;;;;;;;;7.93;88.92;98662.00;1758753;80;21926;-85
2022/02/23 12:46:54;;;;;;;;;;;;;;;8.03;88.67;98654.50;1762601;79;26050;-84
2022/02/23 12:49:21;;;;;;;;;;;;;;;8.13;88.54;98653.89;1761723;80;24485;-84
2022/02/23 12:51:50;;;;;;;;;;;;;;;8.31;88.38;98653.35;1762378;80;20158;-84
2022/02/23 12:54:18;;;;;;;;;;;;;;;8.47;88.33;98651.55;1759180;80;25814;-83